createdAt,value
2024-02-23T00:00:33.505Z,4.24
2024-02-23T00:03:37.197Z,4.20
2024-02-23T00:06:38.783Z,4.27
2024-02-23T00:09:40.554Z,4.29
2024-02-23T00:12:42.386Z,4.25
2024-02-23T00:15:45.105Z,4.32
2024-02-23T00:18:46.788Z,4.29
2024-02-23T00:21:51.847Z,4.27
2024-02-23T00:24:53.386Z,4.27
2024-02-23T00:27:54.888Z,4.26
2024-02-23T00:30:56.392Z,4.32
2024-02-23T00:33:58.098Z,4.33
2024-02-23T00:36:59.625Z,4.36
2024-02-23T00:40:01.646Z,4.31
2024-02-23T00:43:04.247Z,4.36
2024-02-23T00:46:05.750Z,4.45
2024-02-23T00:49:07.367Z,4.40
2024-02-23T00:52:08.843Z,4.45
2024-02-23T00:55:10.691Z,4.42
2024-02-23T00:58:12.657Z,4.39
2024-02-23T01:01:14.268Z,4.40
2024-02-23T01:04:15.798Z,4.33
2024-02-23T01:07:17.255Z,4.24
2024-02-23T01:10:18.755Z,4.20
2024-02-23T01:13:20.244Z,4.14
2024-02-23T01:16:22.038Z,4.39
2024-02-23T01:19:24.788Z,4.37
2024-02-23T01:22:26.327Z,4.26
2024-02-23T01:25:27.810Z,4.25
2024-02-23T01:28:29.317Z,4.19
2024-02-23T01:31:30.755Z,4.33
2024-02-23T01:34:32.325Z,4.47
2024-02-23T01:37:33.783Z,4.38
2024-02-23T01:40:35.299Z,4.42
2024-02-23T01:43:36.883Z,4.33
2024-02-23T01:46:38.577Z,4.23
2024-02-23T01:49:39.995Z,4.23
2024-02-23T01:52:44.297Z,4.15
2024-02-23T01:55:46.607Z,4.16
2024-02-23T01:58:48.103Z,4.15
2024-02-23T02:01:49.776Z,4.11
2024-02-23T02:04:51.360Z,4.11
2024-02-23T02:07:55.289Z,4.09
2024-02-23T02:10:57.023Z,3.98
2024-02-23T02:13:58.595Z,3.95
2024-02-23T02:17:00.103Z,4.13
2024-02-23T02:20:01.647Z,4.00
2024-02-23T02:23:03.486Z,4.01
2024-02-23T02:26:05.100Z,3.98
2024-02-23T02:29:06.651Z,3.95
2024-02-23T02:32:08.592Z,3.91
2024-02-23T02:35:11.828Z,3.91
2024-02-23T02:38:13.402Z,3.89
2024-02-23T02:41:14.953Z,3.83
2024-02-23T02:44:16.570Z,3.83
2024-02-23T02:47:18.152Z,3.86
2024-02-23T02:50:19.683Z,3.85
2024-02-23T02:53:21.243Z,3.89
2024-02-23T02:56:22.877Z,3.88
2024-02-23T02:59:27.331Z,3.85
2024-02-23T03:02:29.995Z,3.72
2024-02-23T03:05:31.685Z,3.87
2024-02-23T03:08:33.441Z,3.68
2024-02-23T03:11:35.129Z,3.55
2024-02-23T03:14:38.852Z,3.56
2024-02-23T03:17:40.588Z,3.56
2024-02-23T03:20:45.536Z,3.47
2024-02-23T03:23:47.039Z,3.33
2024-02-23T03:26:48.608Z,3.34
2024-02-23T03:29:50.453Z,3.26
2024-02-23T03:32:52.125Z,3.12
2024-02-23T03:35:53.716Z,3.12
2024-02-23T03:38:55.260Z,3.06
2024-02-23T03:41:56.700Z,3.11
2024-02-23T03:44:58.217Z,2.98
2024-02-23T03:48:00.656Z,2.96
2024-02-23T03:51:02.297Z,2.91
2024-02-23T03:54:04.411Z,2.90
2024-02-23T03:57:05.978Z,2.84
2024-02-23T04:00:09.023Z,2.88
2024-02-23T04:03:11.238Z,2.90
2024-02-23T04:06:12.825Z,2.88
2024-02-23T04:09:14.593Z,2.80
2024-02-23T04:12:17.219Z,2.71
2024-02-23T04:15:18.961Z,2.68
2024-02-23T04:18:20.761Z,2.71
2024-02-23T04:21:22.322Z,2.71
2024-02-23T04:24:26.034Z,2.68
2024-02-23T04:27:28.766Z,2.71
2024-02-23T04:30:30.275Z,2.72
2024-02-23T04:33:31.792Z,2.85
2024-02-23T04:36:33.436Z,2.93
2024-02-23T04:39:35.185Z,2.96
2024-02-23T04:42:36.714Z,3.04
2024-02-23T04:45:38.483Z,3.09
2024-02-23T04:48:40.117Z,3.10
2024-02-23T04:51:41.714Z,3.08
2024-02-23T04:54:43.214Z,3.15
2024-02-23T04:57:44.645Z,3.23
2024-02-23T05:00:48.696Z,3.17
2024-02-23T05:03:50.344Z,3.12
2024-02-23T05:06:51.997Z,3.04
2024-02-23T05:09:53.527Z,3.04
2024-02-23T05:12:55.191Z,3.08
2024-02-23T05:15:56.793Z,3.09
2024-02-23T05:18:58.291Z,3.05
2024-02-23T05:21:59.902Z,3.03
2024-02-23T05:25:01.362Z,3.05
2024-02-23T05:28:03.830Z,3.09
2024-02-23T05:31:05.911Z,3.15
2024-02-23T05:34:07.653Z,3.18
2024-02-23T05:37:09.210Z,3.26
2024-02-23T05:40:13.754Z,3.28
2024-02-23T05:43:15.418Z,3.33
2024-02-23T05:46:17.067Z,3.31
2024-02-23T05:49:18.959Z,3.30
2024-02-23T05:52:20.623Z,3.31
2024-02-23T05:55:22.224Z,3.24
2024-02-23T05:58:23.686Z,3.20
2024-02-23T06:01:25.144Z,3.22
2024-02-23T06:04:28.062Z,3.21
2024-02-23T06:07:33.540Z,3.18
2024-02-23T06:10:35.568Z,3.18
2024-02-23T06:13:37.408Z,3.15
2024-02-23T06:16:38.933Z,3.18
2024-02-23T06:19:40.497Z,3.15
2024-02-23T06:22:42.004Z,3.18
2024-02-23T06:25:44.693Z,3.18
2024-02-23T06:28:48.153Z,3.13
2024-02-23T06:31:50.847Z,3.07
2024-02-23T06:34:52.656Z,3.01
2024-02-23T06:37:54.201Z,3.05
2024-02-23T06:40:57.569Z,2.95
2024-02-23T06:44:03.258Z,2.86
2024-02-23T06:47:05.128Z,2.82
2024-02-23T06:50:08.877Z,2.78
2024-02-23T06:53:14.666Z,2.73
2024-02-23T06:59:34.369Z,2.65
2024-02-23T07:02:43.326Z,2.72
2024-02-23T07:05:59.797Z,2.74
2024-02-23T07:09:11.653Z,2.81
2024-02-23T07:12:48.608Z,2.79
2024-02-23T07:19:30.736Z,2.67
2024-02-23T07:22:42.976Z,2.69
2024-02-23T07:25:54.716Z,2.73
2024-02-23T07:32:18.652Z,2.98
2024-02-23T07:35:24.973Z,3.06
2024-02-23T07:38:35.186Z,3.20
2024-02-23T07:41:37.135Z,3.37
2024-02-23T07:44:44.869Z,3.40
2024-02-23T07:47:47.355Z,3.48
2024-02-23T07:50:49.070Z,3.47
2024-02-23T07:53:57.272Z,3.50
2024-02-23T07:57:01.382Z,3.53
2024-02-23T08:00:08.269Z,3.53
2024-02-23T08:03:13.886Z,3.61
2024-02-23T08:10:08.532Z,3.75
2024-02-23T08:13:11.760Z,3.89
2024-02-23T08:16:13.336Z,4.13
2024-02-23T08:19:14.827Z,4.81
2024-02-23T08:22:16.281Z,4.56
2024-02-23T08:25:17.873Z,5.45
2024-02-23T08:28:19.367Z,5.58
2024-02-23T08:31:21.028Z,5.45
2024-02-23T08:34:22.629Z,5.10
2024-02-23T08:37:24.177Z,5.37
2024-02-23T08:40:25.714Z,6.50
2024-02-23T08:43:27.255Z,7.11
2024-02-23T08:46:30.027Z,6.67
2024-02-23T08:49:31.669Z,7.47
2024-02-23T08:52:33.323Z,7.58
2024-02-23T08:55:37.217Z,8.00
2024-02-23T08:58:38.677Z,10.58
2024-02-23T09:01:40.146Z,9.42
2024-02-23T09:04:41.749Z,9.52
2024-02-23T09:07:43.369Z,10.15
2024-02-23T09:10:45.555Z,12.05
2024-02-23T09:13:47.119Z,11.83
2024-02-23T09:16:51.665Z,11.70
2024-02-23T09:19:53.318Z,10.83
2024-02-23T09:22:54.902Z,10.27
2024-02-23T09:25:56.486Z,12.12
2024-02-23T09:28:58.675Z,11.95
2024-02-23T09:32:01.529Z,11.67
2024-02-23T09:35:04.626Z,13.66
2024-02-23T09:38:06.187Z,11.66
2024-02-23T09:41:08.878Z,11.03
2024-02-23T09:44:11.012Z,12.31
2024-02-23T09:47:12.726Z,12.46
2024-02-23T09:50:14.387Z,12.03
2024-02-23T09:53:17.368Z,12.97
2024-02-23T09:56:21.200Z,13.92
2024-02-23T09:59:23.241Z,13.32
2024-02-23T10:02:25.052Z,14.01
2024-02-23T10:05:34.194Z,14.25
2024-02-23T10:08:42.999Z,11.62
2024-02-23T10:11:49.769Z,12.31
2024-02-23T10:14:51.453Z,11.35
2024-02-23T10:18:04.003Z,12.15
2024-02-23T10:21:06.360Z,11.04
2024-02-23T10:24:18.425Z,10.17
2024-02-23T10:27:25.539Z,10.36
2024-02-23T10:30:31.696Z,10.16
2024-02-23T10:33:42.060Z,11.30
2024-02-23T10:36:46.048Z,10.61
2024-02-23T10:40:14.456Z,12.20
2024-02-23T10:43:25.842Z,11.66
2024-02-23T10:46:29.967Z,12.86
2024-02-23T10:53:12.869Z,11.13
2024-02-23T10:56:20.720Z,11.00
2024-02-23T10:59:44.149Z,9.58
2024-02-23T11:03:02.662Z,9.06
2024-02-23T11:06:33.232Z,8.15
2024-02-23T11:09:42.210Z,8.46
2024-02-23T11:16:51.411Z,8.66
2024-02-23T11:20:30.138Z,8.29
2024-02-23T11:27:26.517Z,9.12
2024-02-23T11:34:26.910Z,7.72
2024-02-23T11:37:36.709Z,7.36
2024-02-23T11:40:42.863Z,7.42
2024-02-23T11:44:12.488Z,7.35
2024-02-23T11:47:50.881Z,7.46
2024-02-23T11:50:57.514Z,7.48
2024-02-23T11:54:02.491Z,7.31
2024-02-23T11:57:11.314Z,7.33
2024-02-23T12:00:19.168Z,7.16
2024-02-23T12:03:22.326Z,7.36
2024-02-23T12:13:52.581Z,8.08
2024-02-23T12:21:31.025Z,8.76
2024-02-23T12:24:35.310Z,8.53
2024-02-23T12:27:37.508Z,8.25
2024-02-23T12:30:41.407Z,8.50
2024-02-23T12:33:49.963Z,9.27
2024-02-23T12:37:13.468Z,9.88
2024-02-23T12:40:15.657Z,9.50
2024-02-23T12:43:17.460Z,9.07
2024-02-23T12:46:19.096Z,9.11
2024-02-23T12:49:45.875Z,9.28
2024-02-23T12:52:57.382Z,9.01
2024-02-23T12:56:04.473Z,8.45
2024-02-23T13:03:13.052Z,8.20
2024-02-23T13:07:14.817Z,7.67
2024-02-23T13:11:35.492Z,7.25
2024-02-23T13:19:30.526Z,6.39
2024-02-23T13:47:25.467Z,6.88
2024-02-23T13:54:58.727Z,7.18
2024-02-23T13:58:05.464Z,7.31
2024-02-23T14:01:30.799Z,7.76
2024-02-23T14:04:35.728Z,8.60
2024-02-23T14:14:09.621Z,10.82
2024-02-23T14:14:39.205Z,11.39
2024-02-23T14:17:40.852Z,10.92
2024-02-23T14:20:42.538Z,9.97
2024-02-23T14:23:44.122Z,9.14
2024-02-23T14:26:45.670Z,8.14
2024-02-23T14:29:47.628Z,9.60
2024-02-23T14:32:49.391Z,11.52
2024-02-23T14:35:51.293Z,12.10
2024-02-23T14:38:52.999Z,12.10
2024-02-23T14:41:54.605Z,12.81
2024-02-23T14:44:57.093Z,10.35
2024-02-23T14:47:59.619Z,9.39
2024-02-23T14:51:03.782Z,9.54
2024-02-23T14:54:05.316Z,9.80
2024-02-23T14:57:06.943Z,10.09
2024-02-23T15:00:08.852Z,9.46
2024-02-23T15:03:10.385Z,9.13
2024-02-23T15:06:12.062Z,8.91
2024-02-23T15:09:13.678Z,7.96
2024-02-23T15:12:15.361Z,7.27
2024-02-23T15:15:16.929Z,7.23
2024-02-23T15:18:19.075Z,7.42
2024-02-23T15:21:21.030Z,7.71
2024-02-23T15:24:25.236Z,7.77
2024-02-23T15:27:26.686Z,7.42
2024-02-23T15:30:28.227Z,6.90
2024-02-23T15:33:30.577Z,7.07
2024-02-23T15:36:32.197Z,6.61
2024-02-23T15:39:33.811Z,6.51
2024-02-23T15:42:37.052Z,6.88
2024-02-23T15:45:38.871Z,6.84
2024-02-23T15:48:40.547Z,6.26
2024-02-23T15:51:50.227Z,6.11
2024-02-23T15:54:56.726Z,6.18
2024-02-23T15:57:58.316Z,5.96
2024-02-23T16:00:59.849Z,5.59
2024-02-23T16:04:01.368Z,5.50
2024-02-23T16:07:02.902Z,5.08
2024-02-23T16:10:06.018Z,4.93
2024-02-23T16:13:07.690Z,4.97
2024-02-23T16:16:09.862Z,5.03
2024-02-23T16:19:12.377Z,4.73
2024-02-23T16:22:14.265Z,4.74
2024-02-23T16:25:16.231Z,4.76
2024-02-23T16:28:17.763Z,4.85
2024-02-23T16:31:19.277Z,4.72
2024-02-23T16:34:20.737Z,4.51
2024-02-23T16:37:22.627Z,4.09
2024-02-23T16:40:28.809Z,4.17
2024-02-23T16:43:30.274Z,4.00
2024-02-23T16:46:32.190Z,3.86
2024-02-23T16:49:33.860Z,3.88
2024-02-23T16:52:35.430Z,3.85
2024-02-23T16:55:36.894Z,3.67
2024-02-23T16:58:38.419Z,3.67
2024-02-23T17:01:39.949Z,3.61
2024-02-23T17:04:41.419Z,3.42
2024-02-23T17:07:42.949Z,3.45
2024-02-23T17:10:45.120Z,3.40
2024-02-23T17:13:47.702Z,3.23
2024-02-23T17:16:49.248Z,3.22
2024-02-23T17:19:50.765Z,3.20
2024-02-23T17:22:52.355Z,3.06
2024-02-23T17:25:53.872Z,3.05
2024-02-23T17:28:55.385Z,2.95
2024-02-23T17:31:56.921Z,2.74
2024-02-23T17:34:58.461Z,2.80
2024-02-23T17:38:00.473Z,2.80
2024-02-23T17:41:02.099Z,2.79
2024-02-23T17:44:04.714Z,2.75
2024-02-23T17:47:06.726Z,2.71
2024-02-23T17:50:08.956Z,2.69
2024-02-23T17:53:10.544Z,2.62
2024-02-23T17:56:12.092Z,2.53
2024-02-23T17:59:13.764Z,2.45
2024-02-23T18:02:15.376Z,2.29
2024-02-23T18:05:16.970Z,2.24
2024-02-23T18:08:18.727Z,2.20
2024-02-23T18:11:21.318Z,2.28
2024-02-23T18:14:23.017Z,2.25
2024-02-23T18:17:24.654Z,2.18
2024-02-23T18:20:26.217Z,2.26
2024-02-23T18:23:27.768Z,2.28
2024-02-23T18:26:29.279Z,2.10
2024-02-23T18:29:32.859Z,2.00
2024-02-23T18:32:34.399Z,2.00
2024-02-23T18:35:35.957Z,2.01
2024-02-23T18:38:49.900Z,1.74
2024-02-23T18:41:51.380Z,1.75
2024-02-23T18:44:52.916Z,1.78
2024-02-23T18:47:54.506Z,1.71
2024-02-23T18:50:56.198Z,1.67
2024-02-23T18:53:57.697Z,1.64
2024-02-23T18:57:00.595Z,1.74
2024-02-23T19:00:02.097Z,1.62
2024-02-23T19:03:06.135Z,1.61
2024-02-23T19:06:12.477Z,1.61
2024-02-23T19:09:16.780Z,1.66
2024-02-23T19:12:18.400Z,1.62
2024-02-23T19:15:20.086Z,1.58
2024-02-23T19:18:21.728Z,1.44
2024-02-23T19:21:23.430Z,1.34
2024-02-23T19:24:28.803Z,1.27
2024-02-23T19:27:32.728Z,1.19
2024-02-23T19:30:34.265Z,1.10
2024-02-23T19:33:35.908Z,1.11
2024-02-23T19:36:37.427Z,1.10
2024-02-23T19:39:38.965Z,1.20
2024-02-23T19:42:40.428Z,1.11
2024-02-23T19:45:41.949Z,1.02
2024-02-23T19:48:43.502Z,0.96
2024-02-23T19:51:45.140Z,1.09
2024-02-23T19:54:46.702Z,1.10
2024-02-23T19:57:48.178Z,0.94
2024-02-23T20:00:49.693Z,0.94
2024-02-23T20:03:51.229Z,0.92
2024-02-23T20:06:53.638Z,0.85
2024-02-23T20:09:55.383Z,0.88
2024-02-23T20:12:58.251Z,0.75
2024-02-23T20:15:59.862Z,0.61
2024-02-23T20:19:01.497Z,0.59
2024-02-23T20:22:03.471Z,0.56
2024-02-23T20:25:06.071Z,0.52
2024-02-23T20:28:07.738Z,0.55
2024-02-23T20:31:09.263Z,0.52
2024-02-23T20:34:10.931Z,0.49
2024-02-23T20:37:12.488Z,0.43
2024-02-23T20:40:15.784Z,0.41
2024-02-23T20:43:17.975Z,0.40
2024-02-23T20:46:19.650Z,0.34
2024-02-23T20:49:21.184Z,0.35
2024-02-23T20:52:23.544Z,0.33
2024-02-23T20:55:25.072Z,0.26
2024-02-23T20:58:26.636Z,0.23
2024-02-23T21:01:28.108Z,0.23
2024-02-23T21:04:29.658Z,0.24
2024-02-23T21:07:31.145Z,0.22
2024-02-23T21:10:32.706Z,0.28
2024-02-23T21:13:34.188Z,0.22
2024-02-23T21:16:35.645Z,0.18
2024-02-23T21:19:37.229Z,0.24
2024-02-23T21:22:38.829Z,0.15
2024-02-23T21:25:40.543Z,0.10
2024-02-23T21:28:42.064Z,0.10
2024-02-23T21:31:43.689Z,0.19
2024-02-23T21:34:45.478Z,0.28
2024-02-23T21:37:46.983Z,0.28
2024-02-23T21:40:48.475Z,0.28
2024-02-23T21:43:49.945Z,0.46
2024-02-23T21:46:51.404Z,0.54
2024-02-23T21:49:52.867Z,0.64
2024-02-23T21:52:54.323Z,0.63
2024-02-23T21:55:55.811Z,0.66
2024-02-23T21:58:57.303Z,0.69
2024-02-23T22:02:05.900Z,0.75
2024-02-23T22:05:07.822Z,0.70
2024-02-23T22:08:09.518Z,0.74
2024-02-23T22:11:11.177Z,0.78
2024-02-23T22:14:12.851Z,0.79
2024-02-23T22:17:14.938Z,0.79
2024-02-23T22:20:16.563Z,0.71
2024-02-23T22:23:18.190Z,0.79
2024-02-23T22:26:19.814Z,0.83
2024-02-23T22:29:21.417Z,0.82
2024-02-23T22:32:23.979Z,0.84
2024-02-23T22:35:26.553Z,0.92
2024-02-23T22:38:28.166Z,0.94
2024-02-23T22:41:29.757Z,1.02
2024-02-23T22:44:31.258Z,1.07
2024-02-23T22:47:35.255Z,1.04
2024-02-23T22:50:36.879Z,1.04
2024-02-23T22:53:38.482Z,1.04
2024-02-23T22:56:40.111Z,1.05
2024-02-23T22:59:41.721Z,1.03
2024-02-23T23:02:43.404Z,1.06
2024-02-23T23:05:45.011Z,1.11
2024-02-23T23:08:46.635Z,1.12
2024-02-23T23:11:48.390Z,1.07
2024-02-23T23:14:49.939Z,1.08
2024-02-23T23:17:52.809Z,1.06
2024-02-23T23:20:54.475Z,1.07
2024-02-23T23:23:56.174Z,1.09
2024-02-23T23:26:57.684Z,1.07
2024-02-23T23:29:59.147Z,1.19
2024-02-23T23:33:00.770Z,1.13
2024-02-23T23:36:02.358Z,1.13
2024-02-23T23:39:03.845Z,1.08
2024-02-23T23:42:05.465Z,1.08
2024-02-23T23:45:07.158Z,1.05
2024-02-23T23:48:11.248Z,1.05
2024-02-23T23:51:14.155Z,1.20
2024-02-23T23:54:16.190Z,1.19
2024-02-23T23:57:18.095Z,1.21
